Search for airport 
image banner adimage banner adimage banner ad
image banner ad

PN34 - Keystone Heliplex

Located in Coatsville, United States

ICAO - PN34, IATA -

Data provided by Airmate  

General information

Coordinates: N39°58'41" W75°52'56"
Elevation is 642 feet MSL.
 
View others Airports in Pennsylvania

Operational data

Special qualification required
Current time UTC:
Current local time:
Weather at : KMQS - Chester County G O Carlson ( 1 km )
METAR: KMQS 071215Z AUTO 00000KT 10SM CLR 10/00 A2993 RMK AO2
View NOTAMs / SUP AIP / TFR affecting this airport [VIEW]
Communications frequencies: [VIEW]

Runways:

Airport contact information

Address: Coatsville United States

Satellite view of PN34